createdAt,value
2022-11-10T00:02:31.930Z,101051.00
2022-11-10T00:05:15.868Z,101048.72
2022-11-10T00:07:58.230Z,101045.00
2022-11-10T00:10:56.637Z,101046.81
2022-11-10T00:14:00.983Z,101055.63
2022-11-10T00:17:00.928Z,101062.72
2022-11-10T00:19:43.027Z,101056.56
2022-11-10T00:22:26.117Z,101063.25
2022-11-10T00:25:09.736Z,101065.25
2022-11-10T00:27:53.371Z,101073.66
2022-11-10T00:30:38.565Z,101075.97
2022-11-10T00:33:20.736Z,101071.16
2022-11-10T00:36:03.452Z,101069.59
2022-11-10T00:38:45.505Z,101080.38
2022-11-10T00:41:27.610Z,101079.97
2022-11-10T00:44:11.029Z,101070.78
2022-11-10T00:46:52.859Z,101074.00
2022-11-10T00:49:34.639Z,101076.47
2022-11-10T00:52:16.639Z,101079.41
2022-11-10T00:54:58.692Z,101080.94
2022-11-10T00:57:41.025Z,101096.09
2022-11-10T01:00:24.950Z,101088.31
2022-11-10T01:03:07.680Z,101090.69
2022-11-10T01:05:49.640Z,101087.88
2022-11-10T01:08:31.678Z,101087.19
2022-11-10T01:11:16.791Z,101080.41
2022-11-10T01:13:59.418Z,101086.59
2022-11-10T01:16:43.100Z,101097.09
2022-11-10T01:19:25.694Z,101096.16
2022-11-10T01:22:08.058Z,101102.50
2022-11-10T01:24:50.466Z,101112.22
2022-11-10T01:27:32.483Z,101105.97
2022-11-10T01:30:15.000Z,101111.09
2022-11-10T01:32:59.004Z,101107.63
2022-11-10T01:35:41.454Z,101116.94
2022-11-10T01:38:24.149Z,101123.13
2022-11-10T01:41:08.243Z,101130.13
2022-11-10T01:43:50.579Z,101133.00
2022-11-10T01:46:33.031Z,101144.41
2022-11-10T01:49:18.978Z,101144.16
2022-11-10T01:52:08.057Z,101144.88
2022-11-10T01:54:51.257Z,101148.41
2022-11-10T01:57:33.502Z,101140.25
2022-11-10T02:00:18.018Z,101147.50
2022-11-10T02:03:06.955Z,101144.16
2022-11-10T02:05:53.038Z,101157.59
2022-11-10T02:08:36.783Z,101149.88
2022-11-10T02:11:19.276Z,101161.34
2022-11-10T02:14:02.161Z,101163.84
2022-11-10T02:16:44.774Z,101161.97
2022-11-10T02:19:28.031Z,101164.97
2022-11-10T02:22:11.725Z,101165.03
2022-11-10T02:24:53.915Z,101168.13
2022-11-10T02:27:36.352Z,101173.16
2022-11-10T02:30:19.001Z,101179.34
2022-11-10T02:33:02.898Z,101178.03
2022-11-10T02:35:45.121Z,101174.56
2022-11-10T02:38:28.797Z,101176.94
2022-11-10T02:41:11.353Z,101177.41
2022-11-10T02:43:54.874Z,101189.44
2022-11-10T02:46:37.573Z,101193.44
2022-11-10T02:49:19.834Z,101192.22
2022-11-10T02:52:02.318Z,101190.72
2022-11-10T02:54:46.215Z,101192.69
2022-11-10T02:57:28.287Z,101200.72
2022-11-10T03:00:12.140Z,101203.41
2022-11-10T03:02:57.989Z,101206.44
2022-11-10T03:05:40.602Z,101201.25
2022-11-10T03:08:22.967Z,101207.06
2022-11-10T03:11:06.470Z,101218.59
2022-11-10T03:14:00.965Z,101223.75
2022-11-10T03:16:44.361Z,101225.88
2022-11-10T03:19:26.818Z,101230.81
2022-11-10T03:22:08.781Z,101240.47
2022-11-10T03:24:51.133Z,101244.94
2022-11-10T03:27:34.716Z,101251.53
2022-11-10T03:30:16.758Z,101250.53
2022-11-10T03:32:59.425Z,101255.75
2022-11-10T03:35:41.597Z,101266.22
2022-11-10T03:38:23.473Z,101272.44
2022-11-10T03:41:19.374Z,101271.84
2022-11-10T03:44:04.260Z,101273.44
2022-11-10T03:46:51.323Z,101271.59
2022-11-10T03:49:33.691Z,101266.97
2022-11-10T03:52:15.593Z,101278.94
2022-11-10T03:55:02.935Z,101275.31
2022-11-10T03:57:46.054Z,101281.19
2022-11-10T04:00:30.334Z,101273.13
2022-11-10T04:03:12.563Z,101270.44
2022-11-10T04:06:12.432Z,101284.00
2022-11-10T04:09:00.428Z,101288.19
2022-11-10T04:11:59.583Z,101291.38
2022-11-10T04:14:59.257Z,101300.31
2022-11-10T04:17:42.746Z,101297.38
2022-11-10T04:20:24.925Z,101303.25
2022-11-10T04:23:24.764Z,101314.28
2022-11-10T04:26:27.091Z,101314.03
2022-11-10T04:29:11.478Z,101329.34
2022-11-10T04:31:53.815Z,101327.00
2022-11-10T04:34:37.547Z,101340.16
2022-11-10T04:37:19.652Z,101342.38
2022-11-10T04:40:02.087Z,101341.31
2022-11-10T04:42:43.922Z,101329.44
2022-11-10T04:45:25.847Z,101341.13
2022-11-10T04:48:08.263Z,101346.69
2022-11-10T04:50:52.757Z,101344.72
2022-11-10T04:53:35.399Z,101343.59
2022-11-10T04:56:18.965Z,101353.88
2022-11-10T04:59:01.015Z,101355.06
2022-11-10T05:01:42.924Z,101356.50
2022-11-10T05:04:25.165Z,101357.97
2022-11-10T05:07:08.383Z,101351.56
2022-11-10T05:09:50.871Z,101363.97
2022-11-10T05:12:33.235Z,101367.13
2022-11-10T05:15:15.323Z,101370.78
2022-11-10T05:17:57.704Z,101372.66
2022-11-10T05:20:39.810Z,101377.06
2022-11-10T05:23:44.114Z,101378.31
2022-11-10T05:26:26.267Z,101387.41
2022-11-10T05:29:08.861Z,101391.91
2022-11-10T05:31:51.738Z,101397.53
2022-11-10T05:34:34.030Z,101410.22
2022-11-10T05:37:15.933Z,101420.78
2022-11-10T05:39:59.385Z,101420.41
2022-11-10T05:42:45.078Z,101423.59
2022-11-10T05:45:29.677Z,101432.59
2022-11-10T05:48:11.611Z,101445.50
2022-11-10T05:50:53.762Z,101453.19
2022-11-10T05:53:35.694Z,101452.31
2022-11-10T05:56:19.603Z,101452.63
2022-11-10T05:59:01.563Z,101463.81
2022-11-10T06:01:43.938Z,101470.03
2022-11-10T06:04:26.101Z,101472.66
2022-11-10T06:07:08.198Z,101479.50
2022-11-10T06:09:50.583Z,101481.56
2022-11-10T06:12:34.298Z,101484.69
2022-11-10T06:15:17.051Z,101488.34
2022-11-10T06:17:59.534Z,101494.47
2022-11-10T06:20:41.699Z,101504.13
2022-11-10T06:23:24.345Z,101510.78
2022-11-10T06:26:07.161Z,101520.56
2022-11-10T06:28:50.915Z,101521.88
2022-11-10T06:31:33.062Z,101534.75
2022-11-10T06:34:14.975Z,101539.81
2022-11-10T06:36:56.959Z,101540.44
2022-11-10T06:39:39.370Z,101549.72
2022-11-10T06:42:21.488Z,101558.09
2022-11-10T06:45:05.718Z,101561.31
2022-11-10T06:47:47.631Z,101577.44
2022-11-10T06:50:30.304Z,101579.69
2022-11-10T06:53:13.735Z,101588.81
2022-11-10T06:55:56.286Z,101585.59
2022-11-10T06:58:38.048Z,101593.75
2022-11-10T07:01:22.737Z,101603.13
2022-11-10T07:04:19.114Z,101607.75
2022-11-10T07:07:02.426Z,101616.91
2022-11-10T07:09:44.750Z,101618.41
2022-11-10T07:12:26.545Z,101633.34
2022-11-10T07:15:10.868Z,101632.47
2022-11-10T07:17:54.325Z,101633.47
2022-11-10T07:20:37.083Z,101639.06
2022-11-10T07:23:19.557Z,101642.41
2022-11-10T07:26:02.129Z,101647.28
2022-11-10T07:28:44.389Z,101649.84
2022-11-10T07:31:26.625Z,101667.06
2022-11-10T07:34:11.077Z,101663.31
2022-11-10T07:36:52.863Z,101661.72
2022-11-10T07:39:34.851Z,101667.41
2022-11-10T07:42:16.749Z,101663.13
2022-11-10T07:44:58.839Z,101671.59
2022-11-10T07:47:40.747Z,101677.41
2022-11-10T07:50:24.132Z,101680.41
2022-11-10T07:53:07.976Z,101684.00
2022-11-10T07:55:50.362Z,101690.09
2022-11-10T07:58:33.165Z,101697.44
2022-11-10T08:01:15.503Z,101695.28
2022-11-10T08:03:57.813Z,101699.38
2022-11-10T08:06:41.078Z,101702.47
2022-11-10T08:09:23.247Z,101703.66
2022-11-10T08:12:06.718Z,101711.00
2022-11-10T08:14:48.943Z,101712.91
2022-11-10T08:17:31.299Z,101713.47
2022-11-10T08:20:13.610Z,101719.13
2022-11-10T08:23:01.104Z,101719.38
2022-11-10T08:25:43.798Z,101716.75
2022-11-10T08:28:26.356Z,101722.88
2022-11-10T08:31:08.847Z,101724.94
2022-11-10T08:33:51.444Z,101726.22
2022-11-10T08:36:33.314Z,101743.84
2022-11-10T08:39:30.328Z,101739.97
2022-11-10T08:42:19.051Z,101748.19
2022-11-10T08:45:01.010Z,101752.28
2022-11-10T08:47:44.735Z,101759.72
2022-11-10T08:50:27.229Z,101766.72
2022-11-10T08:53:13.152Z,101778.13
2022-11-10T08:56:00.694Z,101777.44
2022-11-10T08:58:50.268Z,101775.78
2022-11-10T09:01:35.463Z,101786.31
2022-11-10T09:04:18.023Z,101792.50
2022-11-10T09:07:00.442Z,101792.34
2022-11-10T09:09:43.136Z,101799.84
2022-11-10T09:12:28.707Z,101797.75
2022-11-10T09:15:12.722Z,101804.09
2022-11-10T09:17:54.929Z,101809.50
2022-11-10T09:20:39.171Z,101806.63
2022-11-10T09:23:22.503Z,101807.97
2022-11-10T09:26:06.939Z,101812.97
2022-11-10T09:28:51.429Z,101812.03
2022-11-10T09:31:33.698Z,101821.03
2022-11-10T09:34:15.930Z,101808.56
2022-11-10T09:36:57.938Z,101816.59
2022-11-10T09:39:39.923Z,101819.88
2022-11-10T09:42:31.634Z,101821.81
2022-11-10T09:45:25.248Z,101829.22
2022-11-10T09:48:17.034Z,101834.44
2022-11-10T09:51:04.622Z,101835.13
2022-11-10T09:53:52.585Z,101835.72
2022-11-10T09:56:36.938Z,101838.28
2022-11-10T09:59:26.658Z,101833.13
2022-11-10T10:02:24.050Z,101843.25
2022-11-10T10:05:33.960Z,101832.16
2022-11-10T10:08:26.385Z,101840.66
2022-11-10T10:11:26.142Z,101834.75
2022-11-10T10:14:37.586Z,101838.31
2022-11-10T10:17:28.104Z,101845.91
2022-11-10T10:20:17.049Z,101850.69
2022-11-10T10:23:13.190Z,101849.56
2022-11-10T10:25:55.767Z,101841.84
2022-11-10T10:28:40.932Z,101835.84
2022-11-10T10:31:25.483Z,101849.88
2022-11-10T10:34:16.381Z,101847.16
2022-11-10T10:36:58.780Z,101846.91
2022-11-10T10:39:45.718Z,101846.75
2022-11-10T10:42:34.201Z,101854.88
2022-11-10T10:45:23.366Z,101860.91
2022-11-10T10:48:26.255Z,101855.63
2022-11-10T10:51:10.481Z,101877.25
2022-11-10T10:53:53.045Z,101879.09
2022-11-10T10:56:35.336Z,101864.97
2022-11-10T10:59:22.825Z,101865.84
2022-11-10T11:02:04.629Z,101861.88
2022-11-10T11:04:46.715Z,101868.59
2022-11-10T11:07:31.287Z,101864.56
2022-11-10T11:10:23.492Z,101860.88
2022-11-10T11:13:17.794Z,101860.06
2022-11-10T11:16:02.363Z,101865.34
2022-11-10T11:18:44.558Z,101863.00
2022-11-10T11:21:35.034Z,101869.50
2022-11-10T11:24:32.150Z,101871.44
2022-11-10T11:27:21.778Z,101871.78
2022-11-10T11:30:10.500Z,101878.41
2022-11-10T11:33:11.169Z,101868.19
2022-11-10T11:36:00.015Z,101877.06
2022-11-10T11:38:54.479Z,101889.13
2022-11-10T11:41:45.565Z,101881.25
2022-11-10T11:44:45.410Z,101872.91
2022-11-10T11:47:47.120Z,101870.44
2022-11-10T11:50:33.797Z,101880.94
2022-11-10T11:53:36.197Z,101873.84
2022-11-10T11:56:25.948Z,101875.47
2022-11-10T11:59:28.382Z,101881.38
2022-11-10T12:02:35.583Z,101880.75
2022-11-10T12:05:43.085Z,101875.09
2022-11-10T12:08:38.039Z,101870.66
2022-11-10T12:11:29.104Z,101876.22
2022-11-10T12:14:21.967Z,101868.03
2022-11-10T12:17:15.909Z,101879.00
2022-11-10T12:20:05.342Z,101880.50
2022-11-10T12:22:55.774Z,101881.31
2022-11-10T12:25:49.926Z,101883.75
2022-11-10T12:28:39.525Z,101881.78
2022-11-10T12:31:26.870Z,101892.81
2022-11-10T12:34:19.517Z,101895.72
2022-11-10T12:37:06.760Z,101904.31
2022-11-10T12:39:55.760Z,101907.56
2022-11-10T12:42:40.110Z,101901.19
2022-11-10T12:45:26.522Z,101907.56
2022-11-10T12:48:13.074Z,101905.22
2022-11-10T12:51:01.105Z,101899.00
2022-11-10T12:53:45.822Z,101908.84
2022-11-10T12:56:35.070Z,101907.56
2022-11-10T12:59:32.669Z,101909.13
2022-11-10T13:02:31.128Z,101916.94
2022-11-10T13:05:45.284Z,101928.56
2022-11-10T13:08:35.173Z,101938.72
2022-11-10T13:11:29.435Z,101938.28
2022-11-10T13:14:24.330Z,101939.16
2022-11-10T13:17:07.109Z,101928.09
2022-11-10T13:19:54.949Z,101940.38
2022-11-10T13:22:40.970Z,101936.00
2022-11-10T13:25:57.745Z,101935.94
2022-11-10T13:29:02.762Z,101941.03
2022-11-10T13:31:54.071Z,101944.56
2022-11-10T13:34:37.458Z,101949.22
2022-11-10T13:37:53.246Z,101949.75
2022-11-10T13:40:39.457Z,101948.97
2022-11-10T13:43:27.802Z,101957.09
2022-11-10T13:46:10.089Z,101957.72
2022-11-10T13:49:31.172Z,101958.84
2022-11-10T13:52:17.906Z,101955.19
2022-11-10T13:55:16.789Z,101953.19
2022-11-10T13:58:04.362Z,101952.47
2022-11-10T14:00:51.674Z,101967.47
2022-11-10T14:04:02.042Z,101966.28
2022-11-10T14:06:49.974Z,101975.03
2022-11-10T14:09:39.637Z,101979.25
2022-11-10T14:12:30.722Z,101981.56
2022-11-10T14:15:18.684Z,101984.66
2022-11-10T14:18:01.334Z,101993.09
2022-11-10T14:20:45.619Z,102002.50
2022-11-10T14:23:33.202Z,101991.53
2022-11-10T14:26:25.126Z,101993.25
2022-11-10T14:29:31.549Z,101990.19
2022-11-10T14:32:21.394Z,102009.78
2022-11-10T14:35:04.437Z,102002.28
2022-11-10T14:37:46.857Z,102011.88
2022-11-10T14:40:30.025Z,102019.75
2022-11-10T14:43:27.554Z,102024.94
2022-11-10T14:46:16.116Z,102034.41
2022-11-10T14:49:00.319Z,102038.59
2022-11-10T14:51:42.787Z,102037.22
2022-11-10T14:54:28.714Z,102045.47
2022-11-10T14:57:20.594Z,102051.00
2022-11-10T15:00:02.663Z,102051.50
2022-11-10T15:02:46.544Z,102054.56
2022-11-10T15:05:31.572Z,102055.91
2022-11-10T15:08:16.288Z,102059.84
2022-11-10T15:10:58.837Z,102060.22
2022-11-10T15:13:41.507Z,102073.13
2022-11-10T15:16:26.726Z,102077.31
2022-11-10T15:19:28.743Z,102067.78
2022-11-10T15:22:19.134Z,102072.13
2022-11-10T15:25:09.174Z,102073.00
2022-11-10T15:27:59.505Z,102080.94
2022-11-10T15:30:51.327Z,102087.41
2022-11-10T15:33:35.784Z,102092.63
2022-11-10T15:36:32.114Z,102092.44
2022-11-10T15:39:23.323Z,102095.91
2022-11-10T15:42:15.843Z,102088.34
2022-11-10T15:44:58.940Z,102092.38
2022-11-10T15:47:42.769Z,102089.50
2022-11-10T15:50:24.994Z,102086.91
2022-11-10T15:53:15.676Z,102085.66
2022-11-10T15:55:57.682Z,102073.16
2022-11-10T15:58:39.790Z,102075.41
2022-11-10T16:01:22.579Z,102074.44
2022-11-10T16:04:04.640Z,102074.13
2022-11-10T16:06:47.340Z,102080.59
2022-11-10T16:09:31.211Z,102076.34
2022-11-10T16:12:20.039Z,102078.56
2022-11-10T16:15:01.991Z,102081.59
2022-11-10T16:17:44.173Z,102085.06
2022-11-10T16:20:26.081Z,102082.25
2022-11-10T16:23:08.990Z,102096.75
2022-11-10T16:25:55.518Z,102099.19
2022-11-10T16:28:37.653Z,102106.88
2022-11-10T16:31:22.587Z,102114.31
2022-11-10T16:34:04.776Z,102130.88
2022-11-10T16:36:49.091Z,102141.22
2022-11-10T16:39:32.115Z,102139.53
2022-11-10T16:42:15.574Z,102137.56
2022-11-10T16:44:57.552Z,102138.53
2022-11-10T16:47:39.569Z,102137.84
2022-11-10T16:50:32.966Z,102130.63
2022-11-10T16:53:18.370Z,102131.91
2022-11-10T16:56:00.282Z,102133.94
2022-11-10T16:58:43.641Z,102130.38
2022-11-10T17:01:29.434Z,102145.75
2022-11-10T17:04:14.294Z,102139.47
2022-11-10T17:06:56.477Z,102153.06
2022-11-10T17:09:38.949Z,102147.56
2022-11-10T17:12:20.854Z,102150.50
2022-11-10T17:15:04.127Z,102155.94
2022-11-10T17:17:50.630Z,102167.25
2022-11-10T17:20:37.840Z,102164.38
2022-11-10T17:23:24.401Z,102171.28
2022-11-10T17:26:09.873Z,102189.00
2022-11-10T17:28:52.429Z,102195.22
2022-11-10T17:31:35.950Z,102195.72
2022-11-10T17:34:18.115Z,102201.09
2022-11-10T17:37:00.109Z,102207.84
2022-11-10T17:39:42.086Z,102202.72
2022-11-10T17:42:24.001Z,102202.34
2022-11-10T17:45:07.367Z,102200.03
2022-11-10T17:47:51.951Z,102197.72
2022-11-10T17:50:34.766Z,102193.00
2022-11-10T17:53:22.287Z,102195.59
2022-11-10T17:56:05.336Z,102197.84
2022-11-10T17:58:47.352Z,102198.81
2022-11-10T18:01:29.402Z,102194.97
2022-11-10T18:04:14.995Z,102195.41
2022-11-10T18:06:57.727Z,102189.34
2022-11-10T18:09:40.346Z,102190.47
2022-11-10T18:12:27.633Z,102178.38
2022-11-10T18:15:14.362Z,102178.84
2022-11-10T18:18:00.931Z,102187.00
2022-11-10T18:20:45.710Z,102190.84
2022-11-10T18:23:27.978Z,102193.13
2022-11-10T18:26:11.720Z,102197.00
2022-11-10T18:28:54.228Z,102204.13
2022-11-10T18:31:36.268Z,102211.69
2022-11-10T18:34:18.086Z,102208.78
2022-11-10T18:37:01.305Z,102209.97
2022-11-10T18:39:43.901Z,102212.56
2022-11-10T18:42:26.343Z,102211.66
2022-11-10T18:45:09.885Z,102213.38
2022-11-10T18:47:52.115Z,102216.09
2022-11-10T18:50:34.251Z,102216.00
2022-11-10T18:53:17.691Z,102219.78
2022-11-10T18:55:59.939Z,102225.09
2022-11-10T18:58:42.576Z,102222.91
2022-11-10T19:01:25.775Z,102220.31
2022-11-10T19:04:07.921Z,102220.66
2022-11-10T19:06:50.362Z,102219.34
2022-11-10T19:09:34.092Z,102226.78
2022-11-10T19:12:16.526Z,102233.28
2022-11-10T19:14:58.355Z,102239.44
2022-11-10T19:17:40.724Z,102236.84
2022-11-10T19:20:22.887Z,102233.06
2022-11-10T19:23:05.595Z,102242.78
2022-11-10T19:25:49.109Z,102241.25
2022-11-10T19:28:31.461Z,102255.41
2022-11-10T19:31:15.906Z,102246.91
2022-11-10T19:33:59.589Z,102235.13
2022-11-10T19:36:41.761Z,102225.50
2022-11-10T19:39:24.333Z,102221.63
2022-11-10T19:42:07.789Z,102226.69
2022-11-10T19:44:49.721Z,102235.13
2022-11-10T19:47:31.744Z,102234.13
2022-11-10T19:50:13.915Z,102238.25
2022-11-10T19:52:56.473Z,102233.91
2022-11-10T19:55:38.586Z,102231.75
2022-11-10T19:58:22.274Z,102234.88
2022-11-10T20:01:05.134Z,102237.59
2022-11-10T20:03:47.824Z,102238.56
2022-11-10T20:06:30.011Z,102244.28
2022-11-10T20:09:11.811Z,102247.31
2022-11-10T20:11:54.329Z,102248.50
2022-11-10T20:14:38.054Z,102266.31
2022-11-10T20:17:20.224Z,102262.78
2022-11-10T20:20:02.188Z,102271.72
2022-11-10T20:22:44.263Z,102268.03
2022-11-10T20:25:26.158Z,102278.75
2022-11-10T20:28:09.095Z,102283.19
2022-11-10T20:30:52.561Z,102279.50
2022-11-10T20:33:35.302Z,102294.84
2022-11-10T20:36:20.862Z,102297.31
2022-11-10T20:39:03.369Z,102297.00
2022-11-10T20:41:45.367Z,102297.53
2022-11-10T20:44:27.480Z,102296.91
2022-11-10T20:47:10.836Z,102299.19
2022-11-10T20:49:53.034Z,102295.91
2022-11-10T20:52:35.267Z,102301.13
2022-11-10T20:55:18.438Z,102303.25
2022-11-10T20:58:00.887Z,102316.47
2022-11-10T21:00:44.435Z,102319.81
2022-11-10T21:03:28.380Z,102325.19
2022-11-10T21:06:11.076Z,102333.06
2022-11-10T21:08:53.573Z,102341.06
2022-11-10T21:11:52.793Z,102334.38
2022-11-10T21:14:34.873Z,102330.91
2022-11-10T21:17:16.814Z,102329.25
2022-11-10T21:20:00.383Z,102325.16
2022-11-10T21:22:42.619Z,102323.50
2022-11-10T21:25:25.248Z,102323.31
2022-11-10T21:28:07.893Z,102328.09
2022-11-10T21:30:50.198Z,102314.91
2022-11-10T21:33:32.282Z,102316.66
2022-11-10T21:36:16.198Z,102325.59
2022-11-10T21:38:59.152Z,102315.88
2022-11-10T21:41:41.882Z,102311.47
2022-11-10T21:44:31.442Z,102304.03
2022-11-10T21:47:13.780Z,102311.47
2022-11-10T21:49:56.133Z,102317.63
2022-11-10T21:52:39.697Z,102312.59
2022-11-10T21:55:22.139Z,102326.88
2022-11-10T21:58:04.390Z,102313.28
2022-11-10T22:00:46.670Z,102316.19
2022-11-10T22:03:30.117Z,102321.19
2022-11-10T22:06:15.281Z,102327.78
2022-11-10T22:08:59.115Z,102343.03
2022-11-10T22:12:03.958Z,102338.06
2022-11-10T22:15:03.577Z,102338.16
2022-11-10T22:18:03.295Z,102349.31
2022-11-10T22:20:45.569Z,102345.34
2022-11-10T22:23:45.815Z,102352.78
2022-11-10T22:26:29.273Z,102352.19
2022-11-10T22:29:11.680Z,102360.00
2022-11-10T22:31:54.392Z,102363.66
2022-11-10T22:34:36.378Z,102366.53
2022-11-10T22:37:18.534Z,102368.75
2022-11-10T22:40:18.826Z,102356.25
2022-11-10T22:43:21.433Z,102371.06
2022-11-10T22:46:04.394Z,102367.69
2022-11-10T22:48:46.531Z,102372.81
2022-11-10T22:51:30.771Z,102363.38
2022-11-10T22:54:15.834Z,102376.06
2022-11-10T22:56:58.271Z,102367.19
2022-11-10T22:59:41.638Z,102367.56
2022-11-10T23:02:23.731Z,102367.41
2022-11-10T23:05:06.749Z,102362.31
2022-11-10T23:07:49.376Z,102366.72
2022-11-10T23:10:31.299Z,102366.91
2022-11-10T23:13:14.665Z,102374.44
2022-11-10T23:16:02.745Z,102387.16
2022-11-10T23:18:47.210Z,102390.97
2022-11-10T23:21:31.778Z,102394.25
2022-11-10T23:24:14.528Z,102397.25
2022-11-10T23:26:56.417Z,102393.28
2022-11-10T23:29:38.939Z,102392.94
2022-11-10T23:32:22.324Z,102388.94
2022-11-10T23:35:04.829Z,102376.19
2022-11-10T23:37:46.711Z,102372.13
2022-11-10T23:40:29.249Z,102376.47
2022-11-10T23:43:11.185Z,102382.75
2022-11-10T23:46:06.463Z,102385.50
2022-11-10T23:48:51.024Z,102386.13
2022-11-10T23:51:33.225Z,102389.22
2022-11-10T23:54:15.231Z,102389.31
2022-11-10T23:56:57.769Z,102389.50
2022-11-10T23:59:39.891Z,102374.75
